Time;durP1;ratioP1;P1;durP2;ratioP2;P2;SDS_P1;SDS_P2;PMS_P1;PMS_P2;Temp;Humidity;BMP_temperature;BMP_pressure;BME280_temperature;BME280_humidity;BME280_pressure;Samples;Min_cycle;Max_cycle;Signal;HPM_P1;HPM_P2
2022/02/19 00:01:35;;;;;;;49.30;13.60;;;;;;;-0.68;83.95;95104.88;5046014;28;20072;-48
2022/02/19 00:04:02;;;;;;;41.58;13.63;;;;;;;-0.72;84.40;95102.75;5045872;28;20073;-48
2022/02/19 00:06:30;;;;;;;14.45;7.40;;;;;;;-0.70;84.01;95101.69;5045920;28;20122;-47
2022/02/19 00:08:58;;;;;;;22.58;7.18;;;;;;;-0.79;83.84;95100.84;5045877;28;20098;-47
2022/02/19 00:11:24;;;;;;;8.05;3.47;;;;;;;-0.84;83.66;95099.69;5044685;28;20044;-49
2022/02/19 00:13:51;;;;;;;12.15;4.18;;;;;;;-0.90;83.23;95110.53;5045081;28;20044;-48
2022/02/19 00:16:18;;;;;;;8.18;3.50;;;;;;;-1.00;83.26;95111.44;5047620;28;20072;-48
2022/02/19 00:18:45;;;;;;;7.15;3.55;;;;;;;-1.11;83.50;95124.50;5045558;28;20068;-48
2022/02/19 00:21:12;;;;;;;9.70;3.03;;;;;;;-1.25;83.51;95122.50;5054798;28;20044;-47
2022/02/19 00:23:40;;;;;;;6.80;3.50;;;;;;;-1.43;84.00;95140.41;5051077;28;20502;-50
2022/02/19 00:26:07;;;;;;;10.65;4.70;;;;;;;-1.47;84.25;95145.03;5049972;28;20430;-50
2022/02/19 00:28:34;;;;;;;6.10;2.80;;;;;;;-1.57;84.56;95145.13;5045508;28;20085;-48
2022/02/19 00:31:03;;;;;;;5.97;3.22;;;;;;;-1.60;85.08;95139.50;5044035;28;20507;-48
2022/02/19 00:33:31;;;;;;;5.95;2.72;;;;;;;-1.63;85.60;95139.78;5050130;28;20067;-48
2022/02/19 00:35:58;;;;;;;5.63;3.03;;;;;;;-1.66;86.01;95145.19;5045355;28;20570;-48
2022/02/19 00:38:25;;;;;;;8.02;3.55;;;;;;;-1.76;86.37;95135.84;5050410;28;20041;-46
2022/02/19 00:40:51;;;;;;;6.25;2.83;;;;;;;-1.74;86.75;95133.97;5056741;28;20078;-48
2022/02/19 00:43:18;;;;;;;10.65;3.55;;;;;;;-1.82;87.23;95130.53;5047953;28;20481;-48
2022/02/19 00:45:45;;;;;;;8.23;4.28;;;;;;;-1.88;87.86;95137.03;5049043;28;20045;-49
2022/02/19 00:48:12;;;;;;;13.77;3.67;;;;;;;-2.16;87.91;95093.72;5044468;28;20470;-47
2022/02/19 00:50:38;;;;;;;4.72;2.83;;;;;;;-1.87;88.84;95128.44;5050022;28;20063;-49
2022/02/19 00:53:05;;;;;;;10.30;2.70;;;;;;;-1.86;89.02;95132.56;5044718;28;20040;-47
2022/02/19 00:55:32;;;;;;;7.28;3.00;;;;;;;-1.84;89.19;95137.53;5048270;28;20041;-48
2022/02/19 00:57:59;;;;;;;9.23;3.08;;;;;;;-1.81;88.97;95122.72;5045208;28;20060;-49
2022/02/19 01:00:26;;;;;;;5.97;2.72;;;;;;;-1.85;89.00;95105.31;5048744;28;20372;-47
2022/02/19 01:03:21;;;;;;;5.95;3.35;;;;;;;-1.67;88.33;95128.28;5035035;28;20384;-48
2022/02/19 01:05:48;;;;;;;8.15;3.15;;;;;;;-1.74;88.49;95128.06;5045138;28;20063;-47
2022/02/19 01:08:15;;;;;;;3.75;2.15;;;;;;;-1.75;88.61;95132.38;5044937;28;20102;-47
2022/02/19 01:10:42;;;;;;;10.48;3.30;;;;;;;-1.75;88.73;95127.25;5047498;28;20094;-46
2022/02/19 01:13:08;;;;;;;10.93;4.82;;;;;;;-1.77;89.55;95124.03;5043633;28;20047;-46
2022/02/19 01:15:35;;;;;;;8.75;3.45;;;;;;;-1.79;89.82;95099.59;5045056;28;20499;-49
2022/02/19 01:18:02;;;;;;;15.05;5.95;;;;;;;-1.66;89.38;95114.53;5058668;28;20095;-49
2022/02/19 01:20:29;;;;;;;23.00;7.57;;;;;;;-1.73;89.37;95117.69;5044010;28;20060;-48
2022/02/19 01:22:56;;;;;;;9.68;3.70;;;;;;;-1.73;89.45;95124.53;5044908;28;20384;-48
2022/02/19 01:25:23;;;;;;;11.50;4.90;;;;;;;-1.80;89.36;95119.25;5045340;28;20052;-47
2022/02/19 01:27:52;;;;;;;7.43;4.20;;;;;;;-1.97;88.81;95108.06;5043994;28;20102;-48
2022/02/19 01:30:19;;;;;;;13.00;4.38;;;;;;;-2.04;89.48;95116.47;5043025;28;20064;-50
2022/02/19 01:32:50;;;;;;;9.70;3.60;;;;;;;-2.09;88.84;95118.66;5041647;28;20481;-48
2022/02/19 01:35:17;;;;;;;15.48;4.43;;;;;;;-2.20;88.99;95112.81;5058565;28;20434;-51
2022/02/19 01:37:44;;;;;;;16.77;6.30;;;;;;;-2.25;89.67;95102.25;5044631;28;20063;-47
2022/02/19 01:40:12;;;;;;;7.05;3.45;;;;;;;-2.27;90.13;95111.78;5047267;28;20068;-48
2022/02/19 01:42:42;;;;;;;16.73;4.10;;;;;;;-2.25;90.33;95104.81;5049488;28;20492;-48
2022/02/19 01:45:14;;;;;;;10.38;3.30;;;;;;;-2.30;90.59;95106.97;5062932;28;20048;-47
2022/02/19 01:47:42;;;;;;;8.25;2.85;;;;;;;-2.31;91.09;95100.25;5043940;28;20033;-48
2022/02/19 01:50:15;;;;;;;8.25;2.63;;;;;;;-2.32;91.35;95098.66;5053059;28;20575;-47
2022/02/19 01:52:45;;;;;;;9.18;3.15;;;;;;;-2.38;91.86;95094.13;5041994;28;20045;-47
2022/02/19 01:55:17;;;;;;;8.52;3.40;;;;;;;-2.31;92.29;95100.25;5043488;28;20103;-48
2022/02/19 01:57:56;;;;;;;8.02;2.92;;;;;;;-2.31;92.13;95095.16;5059159;28;20063;-47
2022/02/19 02:00:41;;;;;;;5.95;2.50;;;;;;;-2.54;92.65;95085.38;5048496;28;20430;-48
2022/02/19 02:03:40;;;;;;;8.35;3.00;;;;;;;-2.42;92.95;95097.91;5019418;28;20515;-47
2022/02/19 02:06:25;;;;;;;3.15;2.50;;;;;;;-2.40;93.65;95096.03;5044491;28;20518;-48
2022/02/19 02:08:53;;;;;;;18.55;4.95;;;;;;;-2.33;93.74;95102.16;5042976;28;20068;-47
2022/02/19 02:11:20;;;;;;;13.23;4.53;;;;;;;-2.30;93.65;95101.88;5044337;28;20040;-47
2022/02/19 02:13:56;;;;;;;7.03;3.50;;;;;;;-2.28;93.33;95099.97;5042224;28;20041;-46
2022/02/19 02:16:36;;;;;;;10.73;4.40;;;;;;;-2.33;93.34;95102.16;5045771;28;20495;-46
2022/02/19 02:19:08;;;;;;;12.25;4.45;;;;;;;-2.33;93.82;95092.75;5049012;28;20064;-48
2022/02/19 02:21:39;;;;;;;12.15;4.07;;;;;;;-2.31;93.47;95090.84;5047971;28;20067;-48
2022/02/19 02:24:06;;;;;;;10.30;3.60;;;;;;;-2.36;93.09;95092.22;5044453;28;20052;-48
2022/02/19 02:26:35;;;;;;;10.70;2.95;;;;;;;-2.38;92.91;95091.56;5042180;28;20071;-47
2022/02/19 02:29:02;;;;;;;6.80;3.47;;;;;;;-2.36;93.03;95092.22;5046070;28;20736;-48
2022/02/19 02:31:31;;;;;;;5.20;3.28;;;;;;;-2.36;92.97;95090.50;5041283;28;20037;-47
2022/02/19 02:33:59;;;;;;;5.50;2.72;;;;;;;-2.34;92.72;95098.00;5058775;28;20041;-47
2022/02/19 02:36:26;;;;;;;8.80;3.35;;;;;;;-2.36;93.15;95098.16;5063541;28;20052;-48
2022/02/19 02:38:54;;;;;;;7.30;3.78;;;;;;;-2.34;93.26;95095.44;5052487;28;20083;-47
2022/02/19 02:41:24;;;;;;;8.73;3.75;;;;;;;-2.37;93.77;95090.66;5051613;28;20136;-47
2022/02/19 02:43:54;;;;;;;9.35;3.65;;;;;;;-2.34;94.05;95086.06;5049517;28;20293;-49
2022/02/19 02:46:21;;;;;;;11.98;4.05;;;;;;;-2.29;94.39;95084.81;5047661;28;20141;-48
2022/02/19 02:48:49;;;;;;;4.68;2.67;;;;;;;-2.26;94.55;95079.44;5046161;28;20053;-47
2022/02/19 02:51:16;;;;;;;11.38;4.47;;;;;;;-2.25;94.27;95079.28;5048322;28;20120;-46
2022/02/19 02:53:47;;;;;;;9.13;3.20;;;;;;;-2.20;94.33;95084.72;5045945;28;20041;-47
2022/02/19 02:56:15;;;;;;;4.80;2.75;;;;;;;-2.21;93.91;95085.69;5051440;28;20045;-47
2022/02/19 02:58:42;;;;;;;9.05;2.88;;;;;;;-2.21;94.02;95085.69;5047528;28;20048;-47
2022/02/19 03:01:09;;;;;;;7.25;2.55;;;;;;;-2.24;94.27;95080.88;5048136;28;20573;-47
2022/02/19 03:03:38;;;;;;;10.00;2.75;;;;;;;-2.34;96.04;95087.78;5053582;28;20404;-48
2022/02/19 03:06:06;;;;;;;7.10;3.65;;;;;;;-2.32;97.02;95083.38;5046236;28;20044;-49
2022/02/19 03:08:34;;;;;;;6.13;4.28;;;;;;;-2.19;96.56;95093.22;5046375;28;20548;-47
2022/02/19 03:11:01;;;;;;;11.23;5.00;;;;;;;-2.25;97.01;95094.59;5047213;28;20106;-51
2022/02/19 03:13:29;;;;;;;8.85;4.60;;;;;;;-2.27;96.89;95093.91;5048259;28;20045;-48
2022/02/19 03:15:57;;;;;;;10.70;5.30;;;;;;;-2.23;96.10;95108.00;5046084;28;20102;-47
2022/02/19 03:18:25;;;;;;;10.10;4.40;;;;;;;-2.19;95.81;95114.41;5051474;28;20053;-47
2022/02/19 03:20:54;;;;;;;10.23;5.30;;;;;;;-2.18;95.10;95118.59;5048577;28;20052;-47
2022/02/19 03:23:22;;;;;;;8.25;3.58;;;;;;;-2.35;95.80;95101.50;5045952;28;20045;-48
2022/02/19 03:25:49;;;;;;;13.75;4.53;;;;;;;-2.26;94.88;95102.38;5049450;28;20071;-46
2022/02/19 03:28:16;;;;;;;12.38;3.90;;;;;;;-2.26;94.54;95099.84;5045539;28;20463;-48
2022/02/19 03:30:44;;;;;;;10.23;3.78;;;;;;;-2.29;93.54;95103.47;5060974;28;20051;-49
2022/02/19 03:33:29;;;;;;;9.60;4.15;;;;;;;-2.36;93.88;95107.53;5046357;28;20737;-47
2022/02/19 03:35:56;;;;;;;17.05;4.93;;;;;;;-2.42;94.04;95113.22;5045224;28;20075;-47
2022/02/19 03:38:23;;;;;;;11.43;4.10;;;;;;;-2.39;93.62;95118.06;5045731;28;20048;-47
2022/02/19 03:41:00;;;;;;;12.68;4.53;;;;;;;-2.44;93.59;95115.13;5048166;28;20049;-47
2022/02/19 03:43:30;;;;;;;12.00;4.28;;;;;;;-2.47;93.74;95110.31;5050364;28;20045;-51
2022/02/19 03:45:57;;;;;;;11.45;4.85;;;;;;;-2.50;93.68;95107.09;5048670;28;20144;-49
2022/02/19 03:48:49;;;;;;;11.35;4.90;;;;;;;-2.54;93.88;95100.69;5040106;28;20053;-48
2022/02/19 03:51:19;;;;;;;11.77;3.47;;;;;;;-2.57;93.77;95111.16;5044872;28;20500;-49
2022/02/19 03:53:47;;;;;;;9.07;3.45;;;;;;;-2.60;93.38;95106.34;5045023;28;20037;-49
2022/02/19 03:56:18;;;;;;;12.82;3.25;;;;;;;-2.63;93.44;95111.75;5047450;28;20049;-48
2022/02/19 03:58:46;;;;;;;15.50;4.32;;;;;;;-2.71;92.40;95114.19;5063412;28;20498;-48
2022/02/19 04:01:14;;;;;;;20.33;3.63;;;;;;;-2.86;93.03;95100.28;5045307;28;20040;-47
2022/02/19 04:03:43;;;;;;;6.22;2.88;;;;;;;-2.90;93.97;95107.41;5045543;28;20048;-52
2022/02/19 04:06:10;;;;;;;4.80;3.00;;;;;;;-2.93;94.71;95105.97;5058407;28;20128;-50
2022/02/19 04:08:37;;;;;;;13.90;3.97;;;;;;;-2.97;95.72;95104.66;5046169;28;20052;-51
2022/02/19 04:11:03;;;;;;;7.38;3.03;;;;;;;-2.86;95.75;95105.41;5049162;28;20052;-48
2022/02/19 04:13:32;;;;;;;13.32;2.53;;;;;;;-2.84;95.81;95108.63;5049945;28;20044;-46
2022/02/19 04:16:07;;;;;;;14.35;2.22;;;;;;;-2.84;95.36;95113.72;5043714;28;20045;-46
2022/02/19 04:18:36;;;;;;;12.80;2.53;;;;;;;-2.88;95.15;95119.09;5044764;28;20128;-49
2022/02/19 04:21:04;;;;;;;7.55;3.25;;;;;;;-2.88;94.99;95121.66;5044378;28;20327;-48
2022/02/19 04:23:31;;;;;;;8.45;3.17;;;;;;;-2.84;95.38;95118.81;5060664;28;20049;-48
2022/02/19 04:26:03;;;;;;;9.35;3.35;;;;;;;-2.99;95.15;95106.53;5046076;28;20049;-47
2022/02/19 04:28:48;;;;;;;17.33;4.40;;;;;;;-2.89;94.94;95112.38;5048645;28;20049;-47
2022/02/19 04:31:27;;;;;;;9.73;3.72;;;;;;;-2.95;95.60;95107.84;5043737;28;20045;-46
2022/02/19 04:34:09;;;;;;;5.35;2.97;;;;;;;-2.89;95.42;95112.38;5044121;28;20044;-47
2022/02/19 04:36:39;;;;;;;10.63;4.15;;;;;;;-2.86;96.54;95106.22;5045596;28;20144;-47
2022/02/19 04:39:07;;;;;;;18.38;6.55;;;;;;;-2.80;95.79;95104.84;5066781;28;20045;-48
2022/02/19 04:41:35;;;;;;;9.15;4.35;;;;;;;-2.80;95.38;95104.84;5042948;28;20055;-47
2022/02/19 04:44:03;;;;;;;7.22;4.20;;;;;;;-2.86;95.42;95101.13;5052968;28;20041;-47
2022/02/19 04:46:31;;;;;;;7.55;3.50;;;;;;;-2.99;95.40;95106.53;5043983;28;20410;-46
2022/02/19 04:48:58;;;;;;;6.53;3.28;;;;;;;-3.05;94.98;95107.09;5046489;28;20503;-47
2022/02/19 04:51:25;;;;;;;11.25;5.47;;;;;;;-3.12;94.61;95111.13;5043286;28;20052;-48
2022/02/19 04:53:54;;;;;;;15.52;4.25;;;;;;;-3.32;94.61;95085.72;5043497;28;20045;-46
2022/02/19 04:56:21;;;;;;;5.93;2.78;;;;;;;-3.35;95.09;95101.28;5043229;28;20050;-48
2022/02/19 04:58:49;;;;;;;8.10;3.38;;;;;;;-3.39;95.34;95102.50;5043593;28;20044;-48
2022/02/19 05:01:16;;;;;;;14.38;3.03;;;;;;;-3.42;95.86;95100.25;5043409;28;20048;-47
2022/02/19 05:04:01;;;;;;;5.63;3.60;;;;;;;-3.42;96.64;95100.25;5043433;28;20040;-49
2022/02/19 05:06:35;;;;;;;10.85;6.20;;;;;;;-3.44;96.80;95106.41;5045705;28;20056;-48
2022/02/19 05:09:03;;;;;;;8.82;3.95;;;;;;;-3.48;97.56;95118.59;5043316;28;20049;-48
2022/02/19 05:11:38;;;;;;;16.77;6.47;;;;;;;-3.40;97.61;95108.53;5043526;28;20051;-46
2022/02/19 05:14:05;;;;;;;25.83;11.23;;;;;;;-3.44;97.93;95107.19;5045080;28;20545;-51
2022/02/19 05:16:33;;;;;;;18.90;9.07;;;;;;;-3.46;98.27;95109.06;5047393;28;20106;-46
2022/02/19 05:19:03;;;;;;;21.85;11.57;;;;;;;-3.35;98.25;95116.59;5043606;28;20049;-46
2022/02/19 05:21:35;;;;;;;15.68;8.20;;;;;;;-3.36;97.77;95104.78;5044552;28;20589;-48
2022/02/19 05:24:03;;;;;;;28.02;10.80;;;;;;;-3.33;98.04;95099.41;5058917;28;20044;-49
2022/02/19 05:26:43;;;;;;;17.80;9.13;;;;;;;-3.23;98.45;95113.84;5050062;28;20067;-51
2022/02/19 05:29:13;;;;;;;13.98;7.55;;;;;;;-3.20;98.48;95119.47;5047547;28;20103;-48
2022/02/19 05:31:41;;;;;;;22.00;8.35;;;;;;;-3.11;98.09;95128.03;5050270;28;20119;-46
2022/02/19 05:34:26;;;;;;;18.50;9.00;;;;;;;-3.10;98.12;95124.53;5043952;28;20056;-46
2022/02/19 05:36:57;;;;;;;26.15;10.45;;;;;;;-3.04;97.98;95124.00;5044723;28;20072;-47
2022/02/19 05:39:26;;;;;;;17.75;9.23;;;;;;;-3.06;97.77;95110.59;5046289;28;20048;-47
2022/02/19 05:41:53;;;;;;;36.33;13.90;;;;;;;-2.88;97.11;95129.28;5049769;28;20041;-47
2022/02/19 05:44:25;;;;;;;52.05;21.05;;;;;;;-2.85;96.86;95135.06;5050371;28;20041;-48
2022/02/19 05:46:55;;;;;;;57.63;20.83;;;;;;;-2.83;96.96;95135.72;5050412;28;20049;-47
2022/02/19 05:49:25;;;;;;;72.30;27.98;;;;;;;-2.79;96.29;95131.94;5046468;28;20057;-47
2022/02/19 05:52:05;;;;;;;57.75;21.45;;;;;;;-2.77;96.90;95132.63;5047633;28;20875;-47
2022/02/19 05:54:35;;;;;;;19.58;12.02;;;;;;;-2.72;97.51;95133.78;5043071;28;20930;-46
2022/02/19 05:57:14;;;;;;;23.42;9.43;;;;;;;-2.64;97.97;95130.53;5044208;28;20048;-47
2022/02/19 05:59:40;;;;;;;14.55;8.27;;;;;;;-2.54;98.20;95116.00;5043093;28;20438;-51
2022/02/19 06:02:10;;;;;;;47.60;17.10;;;;;;;-2.41;98.05;95109.72;5047912;28;20137;-47
2022/02/19 06:04:37;;;;;;;46.08;21.23;;;;;;;-2.30;98.54;95112.09;5045295;28;20126;-46
2022/02/19 06:07:08;;;;;;;73.30;22.88;;;;;;;-2.17;98.13;95097.22;5042722;28;20083;-47
2022/02/19 06:09:36;;;;;;;171.20;61.03;;;;;;;-2.07;98.25;95096.31;5043835;28;20420;-49
2022/02/19 06:12:04;;;;;;;98.75;34.72;;;;;;;-1.94;98.73;95091.66;5042786;28;20469;-49
2022/02/19 06:14:49;;;;;;;37.75;16.13;;;;;;;-1.76;98.64;95089.91;5042461;28;20747;-47
2022/02/19 06:17:22;;;;;;;246.18;82.18;;;;;;;-1.64;98.56;95087.09;5049827;28;20052;-46
2022/02/19 06:19:48;;;;;;;130.40;55.05;;;;;;;-1.48;98.97;95097.41;5059109;28;20063;-48
2022/02/19 06:22:15;;;;;;;37.78;19.40;;;;;;;-1.27;98.64;95103.94;5041663;28;20055;-48
2022/02/19 06:24:43;;;;;;;36.70;15.10;;;;;;;-1.07;98.65;95123.22;5048170;28;20052;-48
2022/02/19 06:27:12;;;;;;;28.90;11.90;;;;;;;-0.90;97.32;95120.75;5043082;28;20059;-46
2022/02/19 06:29:44;;;;;;;16.80;9.38;;;;;;;-0.66;96.53;95133.66;5043257;28;20045;-49
2022/02/19 06:32:12;;;;;;;66.80;33.10;;;;;;;-0.45;95.34;95145.22;5039674;28;20060;-46
2022/02/19 06:34:42;;;;;;;24.52;13.80;;;;;;;-0.33;93.97;95138.88;5048632;28;20099;-48
2022/02/19 06:37:18;;;;;;;32.75;12.07;;;;;;;-0.03;93.37;95144.41;5046276;28;20702;-47
2022/02/19 06:39:47;;;;;;;29.23;12.30;;;;;;;0.15;91.67;95147.63;5042406;28;20478;-47
2022/02/19 06:42:14;;;;;;;29.85;15.30;;;;;;;0.44;90.24;95150.69;5039903;28;20832;-49
2022/02/19 06:44:52;;;;;;;23.02;9.82;;;;;;;0.68;87.94;95158.38;5040355;28;20404;-51
2022/02/19 06:47:20;;;;;;;17.63;7.47;;;;;;;0.96;84.87;95160.59;5042278;28;20414;-48
2022/02/19 06:49:47;;;;;;;11.35;6.03;;;;;;;1.13;83.82;95156.22;5038559;28;20044;-46
2022/02/19 06:52:14;;;;;;;11.95;5.97;;;;;;;1.34;81.42;95159.06;5041036;28;20040;-46
2022/02/19 06:54:46;;;;;;;16.13;7.10;;;;;;;1.50;80.66;95157.41;5039160;28;20562;-50
2022/02/19 06:57:15;;;;;;;11.15;5.78;;;;;;;1.69;81.01;95162.16;5042369;28;20429;-48
2022/02/19 06:59:43;;;;;;;9.27;5.00;;;;;;;1.81;80.31;95164.34;5047930;28;20056;-48
2022/02/19 07:02:11;;;;;;;14.88;6.70;;;;;;;1.94;79.69;95164.56;5039986;28;20523;-48
2022/02/19 07:04:39;;;;;;;18.08;5.82;;;;;;;2.04;78.71;95165.16;5056772;28;20132;-47
2022/02/19 07:07:09;;;;;;;14.07;6.50;;;;;;;2.15;81.91;95163.19;5045330;28;20071;-48
2022/02/19 07:09:36;;;;;;;12.65;6.20;;;;;;;2.08;83.62;95165.63;5048202;28;20435;-47
2022/02/19 07:12:05;;;;;;;14.70;5.28;;;;;;;2.06;84.16;95158.09;5031602;28;20148;-46
2022/02/19 07:14:34;;;;;;;14.18;6.18;;;;;;;2.12;84.80;95155.81;5040888;28;20053;-47
2022/02/19 07:17:09;;;;;;;9.60;3.88;;;;;;;2.13;83.50;95139.44;5041434;28;20507;-48
2022/02/19 07:19:39;;;;;;;20.58;10.18;;;;;;;2.08;83.38;95151.00;5039997;28;20036;-48
2022/02/19 07:22:11;;;;;;;15.50;7.13;;;;;;;2.18;82.56;95160.25;5047432;28;20044;-48
2022/02/19 07:24:38;;;;;;;22.73;9.38;;;;;;;2.21;80.50;95160.72;5044643;28;20103;-49
2022/02/19 07:27:06;;;;;;;7.45;3.72;;;;;;;2.16;79.11;95157.88;5046116;28;20099;-48
2022/02/19 07:29:34;;;;;;;12.48;5.47;;;;;;;2.19;79.13;95146.47;5046342;28;20191;-46
2022/02/19 07:32:02;;;;;;;14.32;5.30;;;;;;;2.26;80.73;95137.09;5045893;28;20119;-47
2022/02/19 07:34:29;;;;;;;10.20;4.53;;;;;;;2.43;78.79;95151.44;5044797;28;20059;-47
2022/02/19 07:36:55;;;;;;;29.30;13.30;;;;;;;2.59;78.46;95157.41;5047352;28;20048;-47
2022/02/19 07:39:22;;;;;;;15.60;5.70;;;;;;;2.75;78.30;95152.13;5046733;28;20053;-46
2022/02/19 07:41:55;;;;;;;16.23;4.72;;;;;;;2.86;77.76;95162.03;5047763;28;20044;-48
2022/02/19 07:44:45;;;;;;;24.15;5.63;;;;;;;3.04;76.85;95166.03;5036596;28;20052;-51
2022/02/19 07:47:33;;;;;;;11.05;4.55;;;;;;;3.18;75.41;95157.50;5031019;28;20175;-50
2022/02/19 07:59:31;;;;;;;17.40;5.80;;;;;;;3.78;72.71;95152.34;5051890;28;20052;-47
2022/02/19 08:01:58;;;;;;;8.80;3.88;;;;;;;3.91;70.67;95157.66;5047181;28;20149;-47
2022/02/19 08:04:27;;;;;;;13.40;4.97;;;;;;;4.06;69.14;95159.41;5051116;28;20052;-48
2022/02/19 08:06:54;;;;;;;16.63;5.90;;;;;;;4.26;68.98;95155.25;5048376;28;20114;-48
2022/02/19 08:09:21;;;;;;;20.60;5.50;;;;;;;4.60;68.47;95157.16;5049032;28;20101;-47
2022/02/19 08:11:50;;;;;;;16.60;6.97;;;;;;;4.78;66.88;95159.28;5045716;28;20061;-49
2022/02/19 08:14:17;;;;;;;17.55;6.70;;;;;;;4.93;65.66;95159.22;5050288;28;20053;-50
2022/02/19 08:16:44;;;;;;;15.77;6.78;;;;;;;5.16;65.94;95156.38;5043504;28;20041;-51
2022/02/19 08:19:12;;;;;;;16.73;5.90;;;;;;;5.40;63.32;95156.91;5046598;28;20403;-49
2022/02/19 08:21:42;;;;;;;12.57;6.00;;;;;;;5.63;60.92;95161.03;5049903;28;20052;-48
2022/02/19 08:24:10;;;;;;;12.30;6.28;;;;;;;5.69;60.27;95152.50;5046933;28;20045;-49
2022/02/19 08:26:37;;;;;;;13.70;4.93;;;;;;;5.93;60.23;95159.75;5046369;28;20112;-51
2022/02/19 08:29:05;;;;;;;13.05;4.22;;;;;;;6.14;59.70;95163.25;5047857;28;20609;-47
2022/02/19 08:31:34;;;;;;;11.32;5.18;;;;;;;6.39;62.85;95154.94;5042938;28;20094;-48
2022/02/19 08:34:02;;;;;;;12.57;4.78;;;;;;;6.59;56.56;95158.38;5046160;28;20040;-48
2022/02/19 08:36:29;;;;;;;8.32;3.42;;;;;;;6.58;55.72;95163.72;5044902;28;20533;-50
2022/02/19 08:38:56;;;;;;;16.30;5.93;;;;;;;6.76;55.88;95168.31;5052337;28;20040;-49
2022/02/19 08:41:24;;;;;;;10.77;5.13;;;;;;;6.91;54.85;95158.56;5043302;28;20061;-51
2022/02/19 08:43:51;;;;;;;14.20;6.22;;;;;;;7.11;55.65;95160.34;5031560;28;20057;-48
2022/02/19 08:46:20;;;;;;;9.63;4.53;;;;;;;7.33;54.77;95156.53;5046198;28;20049;-48
2022/02/19 08:48:47;;;;;;;15.88;4.70;;;;;;;7.38;53.78;95154.16;5051439;28;20040;-50
2022/02/19 08:51:14;;;;;;;14.00;5.25;;;;;;;7.37;53.48;95155.13;5048629;28;20048;-49
2022/02/19 08:53:43;;;;;;;12.23;5.13;;;;;;;7.60;54.22;95156.50;5049616;28;20115;-50
2022/02/19 08:56:10;;;;;;;9.63;4.18;;;;;;;7.84;52.33;95157.59;5048098;28;20055;-51
2022/02/19 08:58:37;;;;;;;14.85;5.13;;;;;;;7.90;51.64;95161.16;5054388;28;20094;-52
2022/02/19 09:01:04;;;;;;;11.10;4.30;;;;;;;8.02;50.28;95160.31;5047645;28;20404;-49
2022/02/19 09:03:31;;;;;;;11.27;4.25;;;;;;;8.15;51.19;95159.44;5055553;28;20508;-50
2022/02/19 09:05:58;;;;;;;9.35;4.95;;;;;;;8.35;50.59;95161.16;5050415;28;20521;-51
2022/02/19 09:08:25;;;;;;;13.07;4.13;;;;;;;8.43;48.84;95171.31;5045878;28;20047;-50
2022/02/19 09:10:52;;;;;;;12.85;4.53;;;;;;;8.48;47.46;95168.91;5046340;28;20049;-50
2022/02/19 09:13:19;;;;;;;10.95;5.55;;;;;;;8.49;47.42;95160.09;5046203;28;20514;-48
2022/02/19 09:15:48;;;;;;;26.55;7.00;;;;;;;8.63;47.49;95160.03;5045198;28;20452;-52
2022/02/19 09:18:16;;;;;;;6.85;3.67;;;;;;;8.81;48.00;95160.09;5052194;28;20102;-48
2022/02/19 09:20:44;;;;;;;8.85;5.20;;;;;;;9.20;46.33;95171.19;5048397;28;20049;-49
2022/02/19 09:23:11;;;;;;;9.18;4.55;;;;;;;9.39;45.83;95148.59;5048037;28;20043;-48
2022/02/19 09:25:38;;;;;;;9.73;3.67;;;;;;;9.57;43.97;95166.81;5044793;28;20033;-52
2022/02/19 09:28:05;;;;;;;6.15;2.70;;;;;;;9.72;41.59;95158.66;5047690;28;20042;-52
2022/02/19 09:30:32;;;;;;;8.15;3.55;;;;;;;9.79;41.89;95163.78;5044189;28;20057;-49
2022/02/19 09:33:01;;;;;;;20.20;4.07;;;;;;;9.98;42.45;95146.34;5043828;28;20055;-47
2022/02/19 09:35:27;;;;;;;10.07;3.28;;;;;;;10.19;42.25;95155.50;5042741;28;20045;-50
2022/02/19 09:37:54;;;;;;;24.38;7.88;;;;;;;10.34;40.02;95165.56;5048683;28;20056;-48
2022/02/19 09:40:21;;;;;;;17.83;5.15;;;;;;;10.32;39.41;95172.78;5037930;28;20069;-51
2022/02/19 09:42:51;;;;;;;6.47;2.47;;;;;;;10.70;40.31;95174.28;5043725;28;20098;-51
2022/02/19 09:45:18;;;;;;;11.23;4.63;;;;;;;11.04;39.61;95169.34;5050315;28;20049;-50
2022/02/19 09:47:45;;;;;;;6.57;2.60;;;;;;;11.25;38.37;95168.81;5046092;28;20827;-47
2022/02/19 09:50:12;;;;;;;8.18;3.22;;;;;;;11.48;38.92;95167.19;5050016;28;20458;-46
2022/02/19 09:52:39;;;;;;;7.70;3.00;;;;;;;11.76;37.31;95156.06;5043267;28;20522;-48
2022/02/19 09:55:07;;;;;;;8.45;4.72;;;;;;;11.84;36.55;95158.28;5042829;28;20103;-46
2022/02/19 09:57:33;;;;;;;14.40;9.05;;;;;;;12.10;36.46;95168.47;5044066;28;20049;-51
2022/02/19 10:00:02;;;;;;;6.18;2.70;;;;;;;12.34;36.58;95167.38;5043533;28;20091;-53
2022/02/19 10:02:39;;;;;;;67.07;27.85;;;;;;;12.48;35.08;95161.88;5049067;28;20435;-49
2022/02/19 10:05:18;;;;;;;29.20;16.35;;;;;;;12.66;35.68;95161.69;5044315;28;20096;-48
2022/02/19 10:08:01;;;;;;;15.07;8.50;;;;;;;12.89;35.73;95168.59;5049338;28;20060;-48
2022/02/19 10:10:28;;;;;;;6.10;2.22;;;;;;;13.10;34.42;95168.91;5048853;28;20047;-51
2022/02/19 10:12:57;;;;;;;7.75;3.90;;;;;;;12.94;34.12;95165.25;5041307;28;20067;-46
2022/02/19 10:15:49;;;;;;;10.50;5.20;;;;;;;12.98;34.94;95161.13;5043106;28;20072;-46
2022/02/19 10:18:34;;;;;;;4.18;1.48;;;;;;;12.97;33.84;95154.34;5043873;28;20152;-47
2022/02/19 10:21:12;;;;;;;;;;;;;;;12.72;36.25;95163.34;5044267;28;20048;-50
2022/02/19 10:23:43;;;;;;;12.70;5.88;;;;;;;13.13;34.21;95164.00;5050467;28;19927;-49
2022/02/19 10:26:11;;;;;;;4.18;2.33;;;;;;;13.23;35.10;95162.56;5048592;28;20451;-51
2022/02/19 10:28:39;;;;;;;3.72;2.15;;;;;;;13.51;35.21;95162.50;5046421;28;20056;-50
2022/02/19 10:31:17;;;;;;;6.38;2.38;;;;;;;13.74;33.99;95147.63;5048989;28;20411;-52
2022/02/19 10:33:44;;;;;;;8.18;1.10;;;;;;;13.95;33.32;95148.63;5047349;28;20522;-47
2022/02/19 10:36:19;;;;;;;8.77;4.32;;;;;;;14.01;33.01;95146.88;5043495;28;20119;-50
2022/02/19 10:38:54;;;;;;;5.50;2.47;;;;;;;14.28;32.62;95137.25;5047494;28;20499;-50
2022/02/19 10:41:31;;;;;;;;;;;;;;;14.45;31.67;95131.91;5046262;28;20704;-45
2022/02/19 10:43:58;;;;;;;12.05;3.80;;;;;;;14.71;30.88;95130.34;5051764;28;19997;-46
2022/02/19 10:46:29;;;;;;;8.05;4.43;;;;;;;14.71;31.21;95125.09;5047536;28;20048;-48
2022/02/19 10:49:10;;;;;;;7.95;4.18;;;;;;;15.00;31.40;95124.00;5044588;28;20114;-48
2022/02/19 10:51:40;;;;;;;4.28;2.15;;;;;;;15.31;29.77;95132.88;5047481;28;20498;-47
2022/02/19 10:54:09;;;;;;;4.45;2.15;;;;;;;15.24;30.54;95127.84;5048541;28;20152;-47
2022/02/19 10:56:37;;;;;;;28.20;15.70;;;;;;;15.01;31.68;95121.13;5048337;28;20045;-48
2022/02/19 10:59:07;;;;;;;6.05;3.80;;;;;;;15.32;30.85;95123.16;5050715;28;20997;-46
2022/02/19 11:01:41;;;;;;;4.00;1.95;;;;;;;15.22;30.54;95108.16;5049641;28;20128;-46
2022/02/19 11:04:11;;;;;;;5.20;3.07;;;;;;;15.55;30.88;95103.63;5050136;28;20111;-47
2022/02/19 11:06:46;;;;;;;6.80;3.13;;;;;;;15.94;30.03;95103.28;5049401;28;20584;-45
2022/02/19 11:09:20;;;;;;;8.05;2.72;;;;;;;15.98;28.58;95101.72;5053666;28;20057;-49
2022/02/19 11:11:49;;;;;;;3.65;1.52;;;;;;;16.35;28.97;95098.13;5049853;28;20144;-46
2022/02/19 11:14:21;;;;;;;4.63;1.42;;;;;;;16.35;27.84;95100.75;5047578;28;20079;-46
2022/02/19 11:16:52;;;;;;;4.55;2.00;;;;;;;16.31;27.84;95083.94;5050982;28;20068;-46
2022/02/19 11:19:22;;;;;;;10.77;4.18;;;;;;;16.01;28.74;95077.56;5046779;28;20138;-48
2022/02/19 11:21:50;;;;;;;6.70;2.30;;;;;;;16.55;29.24;95082.41;5043110;28;20077;-46
2022/02/19 11:24:18;;;;;;;5.15;2.10;;;;;;;16.82;28.27;95076.88;5048064;28;20127;-46
2022/02/19 11:26:47;;;;;;;3.90;1.90;;;;;;;17.06;27.38;95054.53;5047824;28;20037;-49
2022/02/19 11:29:19;;;;;;;4.05;1.77;;;;;;;17.52;26.86;95057.81;5046530;28;20503;-48
2022/02/19 11:31:49;;;;;;;6.90;3.47;;;;;;;17.72;26.42;95056.94;5044616;28;20056;-46
2022/02/19 11:34:23;;;;;;;7.25;3.22;;;;;;;17.53;26.74;95042.81;5044557;28;20418;-46
2022/02/19 11:36:51;;;;;;;;;;;;;;;17.88;27.39;95043.72;5044801;28;20457;-47
2022/02/19 11:39:20;;;;;;;4.22;1.95;;;;;;;18.18;25.49;95052.53;5048543;28;19928;-47
2022/02/19 11:41:49;;;;;;;4.97;2.47;;;;;;;18.40;25.35;95038.94;5045392;28;20073;-46
2022/02/19 11:44:18;;;;;;;7.05;2.60;;;;;;;18.68;25.82;95040.03;5050569;28;20146;-45
2022/02/19 11:46:51;;;;;;;7.47;3.47;;;;;;;18.84;24.57;95044.16;5045247;28;20048;-47
2022/02/19 11:49:42;;;;;;;6.72;4.28;;;;;;;18.72;24.32;95035.78;5045332;28;20049;-46
2022/02/19 11:52:15;;;;;;;9.43;3.40;;;;;;;18.94;24.41;95031.94;5052561;28;20045;-47